createdAt,value
2022-12-16T00:00:08.633Z,-1.93
2022-12-16T00:02:35.792Z,-1.90
2022-12-16T00:05:02.878Z,-1.91
2022-12-16T00:07:29.739Z,-1.88
2022-12-16T00:09:56.490Z,-1.89
2022-12-16T00:12:23.258Z,-1.85
2022-12-16T00:14:49.993Z,-1.79
2022-12-16T00:17:17.509Z,-1.83
2022-12-16T00:19:44.178Z,-1.74
2022-12-16T00:22:10.917Z,-1.78
2022-12-16T00:24:37.607Z,-1.69
2022-12-16T00:27:04.360Z,-1.69
2022-12-16T00:29:31.062Z,-1.70
2022-12-16T00:31:57.810Z,-1.67
2022-12-16T00:34:24.535Z,-1.70
2022-12-16T00:36:51.857Z,-1.70
2022-12-16T00:39:19.081Z,-1.70
2022-12-16T00:41:47.598Z,-1.73
2022-12-16T00:44:14.317Z,-1.79
2022-12-16T00:46:40.998Z,-1.91
2022-12-16T00:49:07.713Z,-1.97
2022-12-16T00:51:34.404Z,-2.03
2022-12-16T00:54:01.166Z,-1.91
2022-12-16T00:56:27.837Z,-2.02
2022-12-16T00:58:54.814Z,-2.02
2022-12-16T01:01:21.773Z,-2.08
2022-12-16T01:03:48.600Z,-1.93
2022-12-16T01:06:17.706Z,-1.88
2022-12-16T01:08:48.459Z,-1.80
2022-12-16T01:11:19.808Z,-1.86
2022-12-16T01:13:50.251Z,-1.92
2022-12-16T01:16:18.811Z,-1.92
2022-12-16T01:18:45.874Z,-1.86
2022-12-16T01:21:14.505Z,-1.82
2022-12-16T01:23:41.253Z,-1.79
2022-12-16T01:26:08.077Z,-1.72
2022-12-16T01:28:34.913Z,-1.77
2022-12-16T01:31:02.109Z,-1.70
2022-12-16T01:33:30.326Z,-1.70
2022-12-16T01:36:05.929Z,-1.72
2022-12-16T01:38:33.445Z,-1.74
2022-12-16T01:41:00.229Z,-1.71
2022-12-16T01:43:37.996Z,-1.69
2022-12-16T01:46:21.715Z,-1.65
2022-12-16T01:48:51.410Z,-1.60
2022-12-16T01:51:33.956Z,-1.59
2022-12-16T01:54:04.853Z,-1.65
2022-12-16T01:56:34.718Z,-1.67
2022-12-16T01:59:02.889Z,-1.60
2022-12-16T02:01:29.985Z,-1.60
2022-12-16T02:04:01.881Z,-1.59
2022-12-16T02:06:30.055Z,-1.67
2022-12-16T02:09:00.298Z,-1.70
2022-12-16T02:12:14.691Z,-1.61
2022-12-16T02:15:20.945Z,-1.55
2022-12-16T02:17:59.941Z,-1.56
2022-12-16T02:21:03.137Z,-1.67
2022-12-16T02:23:42.956Z,-1.67
2022-12-16T02:26:24.212Z,-1.68
2022-12-16T02:29:07.723Z,-1.59
2022-12-16T02:31:55.259Z,-1.65
2022-12-16T02:34:37.143Z,-1.69
2022-12-16T02:37:10.373Z,-1.63
2022-12-16T02:39:52.057Z,-1.57
2022-12-16T02:42:27.707Z,-1.56
2022-12-16T02:45:01.494Z,-1.55
2022-12-16T02:47:29.665Z,-1.57
2022-12-16T02:49:56.790Z,-1.53
2022-12-16T02:52:30.217Z,-1.55
2022-12-16T02:55:00.641Z,-1.57
2022-12-16T02:57:41.935Z,-1.62
2022-12-16T03:00:15.827Z,-1.55
2022-12-16T03:02:49.575Z,-1.47
2022-12-16T03:05:28.868Z,-1.61
2022-12-16T03:07:59.607Z,-1.57
2022-12-16T03:10:32.615Z,-1.55
2022-12-16T03:13:01.446Z,-1.59
2022-12-16T03:15:33.041Z,-1.53
2022-12-16T03:18:01.898Z,-1.56
2022-12-16T03:20:35.741Z,-1.63
2022-12-16T03:23:08.577Z,-1.67
2022-12-16T03:25:38.764Z,-1.62
2022-12-16T03:28:28.297Z,-1.53
2022-12-16T03:31:10.720Z,-1.48
2022-12-16T03:33:56.590Z,-1.47
2022-12-16T03:36:26.278Z,-1.49
2022-12-16T03:38:55.572Z,-1.49
2022-12-16T03:41:24.440Z,-1.60
2022-12-16T03:43:51.939Z,-1.57
2022-12-16T03:46:18.903Z,-1.49
2022-12-16T03:48:47.360Z,-1.49
2022-12-16T03:51:14.222Z,-1.67
2022-12-16T03:53:40.955Z,-1.57
2022-12-16T03:56:07.694Z,-1.53
2022-12-16T03:58:35.348Z,-1.54
2022-12-16T04:01:02.159Z,-1.49
2022-12-16T04:03:29.012Z,-1.49
2022-12-16T04:05:55.871Z,-1.58
2022-12-16T04:08:22.631Z,-1.61
2022-12-16T04:11:11.921Z,-1.60
2022-12-16T04:13:57.220Z,-1.60
2022-12-16T04:16:46.105Z,-1.57
2022-12-16T04:19:42.604Z,-1.63
2022-12-16T04:22:33.562Z,-1.63
2022-12-16T04:25:12.932Z,-1.63
2022-12-16T04:27:39.678Z,-1.57
2022-12-16T04:30:22.148Z,-1.57
2022-12-16T04:33:17.736Z,-1.54
2022-12-16T04:36:03.460Z,-1.50
2022-12-16T04:38:49.331Z,-1.55
2022-12-16T04:41:35.204Z,-1.76
2022-12-16T04:44:20.988Z,-1.61
2022-12-16T04:47:06.454Z,-1.71
2022-12-16T04:49:51.699Z,-1.54
2022-12-16T04:52:37.403Z,-1.50
2022-12-16T04:55:23.127Z,-1.52
2022-12-16T04:58:14.106Z,-1.49
2022-12-16T05:01:00.709Z,-1.59
2022-12-16T05:03:46.876Z,-1.55
2022-12-16T05:06:33.262Z,-1.43
2022-12-16T05:09:18.396Z,-1.42
2022-12-16T05:12:03.858Z,-1.43
2022-12-16T05:14:49.001Z,-1.52
2022-12-16T05:17:34.379Z,-1.57
2022-12-16T05:20:19.752Z,-1.52
2022-12-16T05:23:04.998Z,-1.41
2022-12-16T05:25:50.847Z,-1.38
2022-12-16T05:28:36.091Z,-1.38
2022-12-16T05:31:21.919Z,-1.40
2022-12-16T05:34:07.471Z,-1.46
2022-12-16T05:36:52.647Z,-1.48
2022-12-16T05:39:38.037Z,-1.36
2022-12-16T05:42:23.418Z,-1.41
2022-12-16T05:45:08.767Z,-1.39
2022-12-16T05:47:54.025Z,-1.34
2022-12-16T05:50:39.085Z,-1.33
2022-12-16T05:53:24.388Z,-1.45
2022-12-16T05:56:09.534Z,-1.38
2022-12-16T05:58:55.002Z,-1.41
2022-12-16T06:01:41.109Z,-1.34
2022-12-16T06:04:26.647Z,-1.39
2022-12-16T06:07:11.997Z,-1.40
2022-12-16T06:09:57.385Z,-1.33
2022-12-16T06:12:42.544Z,-1.34
2022-12-16T06:15:28.318Z,-1.38
2022-12-16T06:18:13.576Z,-1.36
2022-12-16T06:20:59.007Z,-1.28
2022-12-16T06:23:44.283Z,-1.18
2022-12-16T06:26:29.506Z,-1.23
2022-12-16T06:29:14.543Z,-1.19
2022-12-16T06:31:59.979Z,-1.16
2022-12-16T06:34:45.533Z,-1.15
2022-12-16T06:37:30.907Z,-1.16
2022-12-16T06:40:16.346Z,-1.09
2022-12-16T06:43:01.596Z,-1.16
2022-12-16T06:45:46.947Z,-1.18
2022-12-16T06:48:32.197Z,-1.14
2022-12-16T06:51:17.659Z,-1.10
2022-12-16T06:54:03.368Z,-1.18
2022-12-16T06:56:48.953Z,-1.19
2022-12-16T06:59:34.456Z,-1.20
2022-12-16T07:02:19.828Z,-1.20
2022-12-16T07:05:05.433Z,-0.67
2022-12-16T07:07:50.711Z,-1.12
2022-12-16T07:10:36.045Z,-1.25
2022-12-16T07:13:21.337Z,-1.35
2022-12-16T07:16:06.807Z,-1.28
2022-12-16T07:18:52.328Z,-1.32
2022-12-16T07:21:37.525Z,-1.30
2022-12-16T07:24:23.449Z,-1.41
2022-12-16T07:27:08.644Z,-1.34
2022-12-16T07:29:54.140Z,-1.33
2022-12-16T07:32:39.394Z,-1.32
2022-12-16T07:35:36.935Z,-1.43
2022-12-16T07:38:37.779Z,-1.32
2022-12-16T07:45:29.647Z,-1.32
2022-12-16T07:48:15.172Z,-1.29
2022-12-16T07:51:00.804Z,-1.28
2022-12-16T07:53:46.732Z,-1.36
2022-12-16T07:56:32.060Z,-1.36
2022-12-16T07:59:17.240Z,-1.29
2022-12-16T08:02:02.765Z,-1.31
2022-12-16T08:04:48.030Z,-1.24
2022-12-16T08:07:33.297Z,-1.27
2022-12-16T08:10:18.543Z,-1.20
2022-12-16T08:13:03.881Z,-1.15
2022-12-16T08:15:49.479Z,-1.09
2022-12-16T08:18:34.660Z,-1.04
2022-12-16T08:21:19.871Z,-0.99
2022-12-16T08:24:05.080Z,-0.88
2022-12-16T08:26:50.394Z,-0.80
2022-12-16T08:29:44.981Z,-0.75
2022-12-16T08:32:31.923Z,-0.79
2022-12-16T08:35:17.031Z,-0.89
2022-12-16T08:38:02.397Z,-0.73
2022-12-16T08:40:48.122Z,-0.69
2022-12-16T08:43:34.362Z,-0.61
2022-12-16T08:46:20.664Z,-0.66
2022-12-16T08:49:06.195Z,-0.60
2022-12-16T08:51:51.583Z,-0.53
2022-12-16T08:54:36.923Z,-0.68
2022-12-16T08:57:22.175Z,-0.62
2022-12-16T09:00:07.847Z,-0.31
2022-12-16T09:02:53.581Z,-0.57
2022-12-16T09:05:41.471Z,-0.52
2022-12-16T09:08:27.025Z,-0.39
2022-12-16T09:11:12.203Z,-0.40
2022-12-16T09:13:57.640Z,-0.34
2022-12-16T09:16:43.233Z,0.58
2022-12-16T09:19:29.177Z,-0.10
2022-12-16T09:22:14.451Z,-0.23
2022-12-16T09:24:59.747Z,-0.11
2022-12-16T09:27:45.139Z,-0.25
2022-12-16T09:30:30.887Z,-0.23
2022-12-16T09:33:16.542Z,-0.14
2022-12-16T09:36:02.136Z,-0.09
2022-12-16T09:38:47.413Z,0.07
2022-12-16T09:41:55.502Z,0.03
2022-12-16T09:45:13.586Z,0.08
2022-12-16T09:48:18.621Z,0.06
2022-12-16T09:51:04.946Z,-0.07
2022-12-16T09:53:54.918Z,0.14
2022-12-16T09:56:46.774Z,0.15
2022-12-16T09:59:41.010Z,0.19
2022-12-16T10:02:36.144Z,0.13
2022-12-16T10:05:22.091Z,0.30
2022-12-16T10:08:19.217Z,0.14
2022-12-16T10:11:07.735Z,0.30
2022-12-16T10:14:02.961Z,0.33
2022-12-16T10:17:21.505Z,0.36
2022-12-16T10:20:09.392Z,0.40
2022-12-16T10:23:14.301Z,0.33
2022-12-16T10:26:05.673Z,0.38
2022-12-16T10:29:22.770Z,0.45
2022-12-16T10:32:08.155Z,0.52
2022-12-16T10:34:56.052Z,0.54
2022-12-16T10:38:02.148Z,0.50
2022-12-16T10:40:52.423Z,0.63
2022-12-16T10:44:02.978Z,0.69
2022-12-16T10:46:53.283Z,0.80
2022-12-16T10:49:39.628Z,0.81
2022-12-16T10:52:25.534Z,0.80
2022-12-16T10:55:26.070Z,0.84
2022-12-16T10:58:34.140Z,0.86
2022-12-16T11:01:39.993Z,1.04
2022-12-16T11:04:52.890Z,1.01
2022-12-16T11:07:56.690Z,0.80
2022-12-16T11:10:44.990Z,0.99
2022-12-16T11:13:38.273Z,1.05
2022-12-16T11:16:31.792Z,1.12
2022-12-16T11:19:17.652Z,1.42
2022-12-16T11:22:03.549Z,1.54
2022-12-16T11:24:49.119Z,1.47
2022-12-16T11:27:45.864Z,1.41
2022-12-16T11:30:41.894Z,1.49
2022-12-16T11:33:40.756Z,1.60
2022-12-16T11:36:33.637Z,1.82
2022-12-16T11:39:21.845Z,1.87
2022-12-16T11:42:10.930Z,1.96
2022-12-16T11:45:13.976Z,2.07
2022-12-16T11:48:11.377Z,2.08
2022-12-16T11:51:01.698Z,2.09
2022-12-16T11:54:15.655Z,1.98
2022-12-16T11:57:03.386Z,1.91
2022-12-16T11:59:58.833Z,2.02
2022-12-16T12:02:55.048Z,1.97
2022-12-16T12:05:55.866Z,1.93
2022-12-16T12:08:50.112Z,1.84
2022-12-16T12:11:55.602Z,1.75
2022-12-16T12:15:12.007Z,1.61
2022-12-16T12:18:11.339Z,1.56
2022-12-16T12:21:31.611Z,1.46
2022-12-16T12:24:33.834Z,1.40
2022-12-16T12:27:46.214Z,1.29
2022-12-16T12:30:39.545Z,1.50
2022-12-16T12:33:29.420Z,1.63
2022-12-16T12:36:54.250Z,1.35
2022-12-16T12:39:58.909Z,1.36
2022-12-16T12:42:59.806Z,1.31
2022-12-16T12:46:05.911Z,1.36
2022-12-16T12:49:07.313Z,1.24
2022-12-16T12:52:25.414Z,1.36
2022-12-16T12:55:40.817Z,1.29
2022-12-16T12:58:28.639Z,1.33
2022-12-16T13:01:16.622Z,1.38
2022-12-16T13:04:09.344Z,1.43
2022-12-16T13:06:56.117Z,1.52
2022-12-16T13:09:55.686Z,1.38
2022-12-16T13:12:44.670Z,1.39
2022-12-16T13:15:57.563Z,1.54
2022-12-16T13:18:47.115Z,1.47
2022-12-16T13:21:54.947Z,1.43
2022-12-16T13:24:42.009Z,1.46
2022-12-16T13:27:43.647Z,1.39
2022-12-16T13:30:29.195Z,1.43
2022-12-16T13:33:16.804Z,1.25
2022-12-16T13:36:17.197Z,1.24
2022-12-16T13:39:08.113Z,1.20
2022-12-16T13:41:53.541Z,1.10
2022-12-16T13:45:00.883Z,0.97
2022-12-16T13:48:01.368Z,0.93
2022-12-16T13:51:05.106Z,0.84
2022-12-16T13:53:56.082Z,0.80
2022-12-16T13:56:56.651Z,0.67
2022-12-16T13:59:45.359Z,0.62
2022-12-16T14:02:54.651Z,0.57
2022-12-16T14:05:48.920Z,0.45
2022-12-16T14:08:38.286Z,0.51
2022-12-16T14:11:32.672Z,0.51
2022-12-16T14:14:26.774Z,0.40
2022-12-16T14:17:19.791Z,0.32
2022-12-16T14:20:47.582Z,0.19
2022-12-16T14:23:55.838Z,0.10
2022-12-16T14:26:39.114Z,0.03
2022-12-16T14:29:43.221Z,-0.05
2022-12-16T14:32:49.621Z,-0.17
2022-12-16T14:35:44.474Z,-0.29
2022-12-16T14:38:43.450Z,-0.35
2022-12-16T14:41:39.967Z,-0.51
2022-12-16T14:44:55.597Z,-0.59
2022-12-16T14:47:41.788Z,-0.72
2022-12-16T14:50:48.286Z,-0.84
2022-12-16T14:53:42.578Z,-1.11
2022-12-16T14:56:35.107Z,-1.26
2022-12-16T14:59:27.817Z,-1.28
2022-12-16T15:02:16.090Z,-1.42
2022-12-16T15:05:02.368Z,-1.44
2022-12-16T15:07:54.632Z,-1.50
2022-12-16T15:10:45.153Z,-1.57
2022-12-16T15:13:36.894Z,-1.74
2022-12-16T15:16:23.918Z,-1.87
2022-12-16T15:19:18.356Z,-2.04
2022-12-16T15:22:04.373Z,-2.20
2022-12-16T15:24:55.151Z,-2.24
2022-12-16T15:27:41.081Z,-2.34
2022-12-16T15:31:06.499Z,-2.47
2022-12-16T15:33:57.836Z,-2.43
2022-12-16T15:36:47.537Z,-2.53
2022-12-16T15:39:52.276Z,-2.60
2022-12-16T15:42:41.658Z,-2.58
2022-12-16T15:46:09.576Z,-2.74
2022-12-16T15:48:56.371Z,-2.87
2022-12-16T15:51:52.089Z,-2.95
2022-12-16T15:54:40.516Z,-3.06
2022-12-16T15:57:58.971Z,-3.05
2022-12-16T16:00:47.433Z,-3.15
2022-12-16T16:03:36.110Z,-3.23
2022-12-16T16:06:22.599Z,-3.25
2022-12-16T16:09:11.067Z,-3.41
2022-12-16T16:12:16.387Z,-3.43
2022-12-16T16:15:02.495Z,-3.58
2022-12-16T16:17:48.353Z,-3.66
2022-12-16T16:20:37.440Z,-3.76
2022-12-16T16:23:24.161Z,-3.49
2022-12-16T16:26:09.991Z,-3.82
2022-12-16T16:28:55.346Z,-3.96
2022-12-16T16:31:42.231Z,-4.02
2022-12-16T16:34:41.731Z,-4.17
2022-12-16T16:37:34.014Z,-4.43
2022-12-16T16:40:23.350Z,-4.65
2022-12-16T16:43:11.706Z,-4.80
2022-12-16T16:46:17.292Z,-4.90
2022-12-16T16:49:02.403Z,-4.93
2022-12-16T16:51:48.954Z,-4.88
2022-12-16T16:54:34.495Z,-4.85
2022-12-16T16:57:22.397Z,-5.09
2022-12-16T17:00:07.746Z,-4.93
2022-12-16T17:02:53.192Z,-4.30
2022-12-16T17:05:38.536Z,-5.09
2022-12-16T17:08:23.919Z,-5.19
2022-12-16T17:11:09.421Z,-5.25
2022-12-16T17:13:54.880Z,-5.23
2022-12-16T17:16:40.407Z,-5.28
2022-12-16T17:19:25.736Z,-5.43
2022-12-16T17:22:11.414Z,-5.56
2022-12-16T17:24:58.150Z,-5.58
2022-12-16T17:27:44.458Z,-5.59
2022-12-16T17:30:45.169Z,-5.58
2022-12-16T17:33:33.027Z,-5.63
2022-12-16T17:36:18.806Z,-5.62
2022-12-16T17:39:04.736Z,-5.60
2022-12-16T17:41:51.859Z,-5.64
2022-12-16T17:44:37.862Z,-5.62
2022-12-16T17:47:25.676Z,-5.65
2022-12-16T17:50:10.974Z,-5.62
2022-12-16T17:52:56.332Z,-5.58
2022-12-16T17:55:41.670Z,-5.65
2022-12-16T17:58:37.532Z,-5.79
2022-12-16T18:01:25.195Z,-5.82
2022-12-16T18:04:10.939Z,-5.85
2022-12-16T18:06:56.382Z,-5.73
2022-12-16T18:09:41.914Z,-5.63
2022-12-16T18:12:27.296Z,-5.74
2022-12-16T18:15:12.512Z,-5.94
2022-12-16T18:17:57.827Z,-6.04
2022-12-16T18:20:42.970Z,-6.06
2022-12-16T18:23:28.531Z,-6.05
2022-12-16T18:26:22.441Z,-6.08
2022-12-16T18:29:08.356Z,-6.09
2022-12-16T18:31:53.691Z,-6.20
2022-12-16T18:34:41.946Z,-6.20
2022-12-16T18:37:33.565Z,-6.15
2022-12-16T18:40:19.017Z,-5.98
2022-12-16T18:43:07.755Z,-6.02
2022-12-16T18:46:03.454Z,-6.21
2022-12-16T18:48:48.837Z,-6.30
2022-12-16T18:51:34.243Z,-6.21
2022-12-16T18:54:30.665Z,-6.39
2022-12-16T18:57:16.045Z,-6.52
2022-12-16T19:00:01.407Z,-6.76
2022-12-16T19:02:47.252Z,-6.66
2022-12-16T19:05:34.017Z,-6.66
2022-12-16T19:08:19.427Z,-6.90
2022-12-16T19:11:04.851Z,-6.89
2022-12-16T19:13:50.187Z,-6.92
2022-12-16T19:16:35.462Z,-6.85
2022-12-16T19:19:21.010Z,-6.85
2022-12-16T19:22:06.825Z,-6.89
2022-12-16T19:24:55.068Z,-6.98
2022-12-16T19:27:42.235Z,-7.02
2022-12-16T19:30:28.658Z,-7.04
2022-12-16T19:33:14.134Z,-7.07
2022-12-16T19:35:59.625Z,-7.02
2022-12-16T19:38:48.067Z,-7.12
2022-12-16T19:41:37.832Z,-7.18
2022-12-16T19:44:26.015Z,-7.19
2022-12-16T19:47:16.592Z,-7.20
2022-12-16T19:50:02.317Z,-7.19
2022-12-16T19:52:47.831Z,-7.32
2022-12-16T19:55:35.438Z,-7.25
2022-12-16T19:58:21.668Z,-7.10
2022-12-16T20:01:07.376Z,-7.20
2022-12-16T20:03:53.562Z,-7.32
2022-12-16T20:06:42.123Z,-7.39
2022-12-16T20:09:27.508Z,-7.37
2022-12-16T20:12:17.746Z,-7.47
2022-12-16T20:15:06.456Z,-7.51
2022-12-16T20:17:51.786Z,-7.57
2022-12-16T20:20:37.294Z,-7.75
2022-12-16T20:23:24.642Z,-7.74
2022-12-16T20:26:18.858Z,-7.92
2022-12-16T20:29:05.402Z,-7.90
2022-12-16T20:31:51.388Z,-7.95
2022-12-16T20:34:37.397Z,-7.83
2022-12-16T20:37:23.448Z,-7.61
2022-12-16T20:40:09.376Z,-7.75
2022-12-16T20:42:54.964Z,-7.66
2022-12-16T20:45:41.710Z,-7.56
2022-12-16T20:48:31.602Z,-7.51
2022-12-16T20:54:28.966Z,-7.77
2022-12-16T20:57:14.886Z,-7.80
2022-12-16T21:00:00.457Z,-7.83
2022-12-16T21:02:45.846Z,-7.79
2022-12-16T21:05:31.167Z,-7.78
2022-12-16T21:08:16.717Z,-7.86
2022-12-16T21:11:02.045Z,-7.86
2022-12-16T21:13:47.712Z,-7.91
2022-12-16T21:16:33.920Z,-7.86
2022-12-16T21:19:19.119Z,-7.91
2022-12-16T21:22:04.832Z,-7.89
2022-12-16T21:24:50.172Z,-7.86
2022-12-16T21:27:35.444Z,-7.77
2022-12-16T21:30:21.014Z,-7.61
2022-12-16T21:33:09.917Z,-7.98
2022-12-16T21:35:58.465Z,-7.77
2022-12-16T21:38:43.947Z,-7.89
2022-12-16T21:41:29.282Z,-7.92
2022-12-16T21:44:17.667Z,-7.87
2022-12-16T21:47:02.971Z,-7.91
2022-12-16T21:49:49.284Z,-7.95
2022-12-16T21:52:35.431Z,-8.07
2022-12-16T21:55:21.087Z,-8.22
2022-12-16T21:58:09.524Z,-7.96
2022-12-16T22:00:58.893Z,-7.90
2022-12-16T22:03:52.208Z,-8.06
2022-12-16T22:06:40.023Z,-8.07
2022-12-16T22:09:28.741Z,-8.05
2022-12-16T22:12:14.356Z,-8.00
2022-12-16T22:15:03.276Z,-7.85
2022-12-16T22:17:57.791Z,-7.97
2022-12-16T22:20:43.696Z,-8.11
2022-12-16T22:23:28.958Z,-8.03
2022-12-16T22:26:14.675Z,-8.10
2022-12-16T22:29:00.659Z,-8.14
2022-12-16T22:31:46.188Z,-8.07
2022-12-16T22:34:31.445Z,-8.28
2022-12-16T22:36:21.565Z,-7.60
2022-12-16T22:37:16.661Z,-8.33
2022-12-16T22:40:02.007Z,-8.46
2022-12-16T22:42:47.313Z,-8.71
2022-12-16T22:45:32.536Z,-8.69
2022-12-16T22:48:17.775Z,-8.64
2022-12-16T22:51:03.294Z,-8.38
2022-12-16T22:53:48.591Z,-8.49
2022-12-16T22:56:33.741Z,-8.65
2022-12-16T22:59:18.973Z,-8.69
2022-12-16T23:02:04.338Z,-8.78
2022-12-16T23:04:49.778Z,-8.84
2022-12-16T23:07:34.964Z,-8.77
2022-12-16T23:10:20.588Z,-8.99
2022-12-16T23:13:05.981Z,-9.03
2022-12-16T23:15:52.006Z,-9.03
2022-12-16T23:18:37.387Z,-9.10
2022-12-16T23:21:22.755Z,-9.00
2022-12-16T23:24:11.309Z,-8.88
2022-12-16T23:26:56.557Z,-8.92
2022-12-16T23:29:41.836Z,-9.01
2022-12-16T23:32:27.347Z,-9.03
2022-12-16T23:35:12.714Z,-9.05
2022-12-16T23:37:58.204Z,-9.01
2022-12-16T23:40:43.336Z,-8.93
2022-12-16T23:43:28.909Z,-9.10
2022-12-16T23:46:14.315Z,-9.10
2022-12-16T23:48:59.612Z,-8.95
2022-12-16T23:51:44.859Z,-8.98
2022-12-16T23:54:29.999Z,-8.96
2022-12-16T23:57:15.257Z,-8.86
